METAR Formatted Surface Weather Observation
Issued by NWS

Home | Current Version | Previous Version | Text Only | Print | Product List | Glossary On
Versions: 1 2 3 4 5 6 7 8 9 10 11 12 13 14 15 16
000
SAUS45 KFGZ 280758 COR
MTRRQE
METAR KRQE 280753Z AUTO 00000KT 10SM CLR 11/07 A3033 RMK AO2 SLP167
T01110072 TSNO



USA.gov is the U.S. government's official web portal to all federal, state and local government web resources and services.